Time;durP1;ratioP1;P1;durP2;ratioP2;P2;SDS_P1;SDS_P2;PMS_P1;PMS_P2;Temp;Humidity;BMP_temperature;BMP_pressure;BME280_temperature;BME280_humidity;BME280_pressure;Samples;Min_cycle;Max_cycle;Signal;HPM_P1;HPM_P2
2022/04/13 00:00:30;;;;;;;12.13;7.15;;;;;;;;;;5020963;28;20096;-77
2022/04/13 00:02:57;;;;;;;12.32;7.47;;;;;;;;;;5017374;28;20057;-78
2022/04/13 00:05:24;;;;;;;13.25;7.72;;;;;;;;;;5016102;28;20082;-78
2022/04/13 00:07:51;;;;;;;13.32;7.47;;;;;;;;;;5018742;28;20046;-77
2022/04/13 00:10:18;;;;;;;14.30;7.85;;;;;;;;;;5028019;28;20568;-77
2022/04/13 00:12:44;;;;;;;12.82;6.88;;;;;;;;;;5030022;28;20621;-78
2022/04/13 00:15:11;;;;;;;13.68;6.97;;;;;;;;;;5030513;28;20054;-79
2022/04/13 00:17:39;;;;;;;14.80;8.13;;;;;;;;;;5030079;28;20441;-78
2022/04/13 00:20:07;;;;;;;13.40;7.22;;;;;;;;;;5019748;28;20086;-75
2022/04/13 00:22:34;;;;;;;13.77;8.43;;;;;;;;;;5015580;28;20459;-77
2022/04/13 00:25:01;;;;;;;15.23;7.82;;;;;;;;;;5016101;28;20096;-77
2022/04/13 00:27:28;;;;;;;15.60;7.43;;;;;;;;;;5016638;28;20445;-78
2022/04/13 00:29:55;;;;;;;14.20;7.43;;;;;;;;;;5015442;28;20632;-78
2022/04/13 00:32:22;;;;;;;12.20;7.13;;;;;;;;;;5016719;28;20081;-79
2022/04/13 00:34:50;;;;;;;17.00;7.60;;;;;;;;;;5016582;28;20050;-77
2022/04/13 00:37:17;;;;;;;12.15;7.75;;;;;;;;;;5017017;28;20501;-78
2022/04/13 00:39:43;;;;;;;11.68;7.00;;;;;;;;;;5016897;28;20053;-77
2022/04/13 00:42:10;;;;;;;13.65;7.50;;;;;;;;;;5016056;28;20049;-78
2022/04/13 00:44:37;;;;;;;14.38;7.32;;;;;;;;;;5016808;28;20476;-78
2022/04/13 00:47:08;;;;;;;11.80;7.28;;;;;;;;;;5015362;28;20089;-78
2022/04/13 00:49:35;;;;;;;14.25;7.25;;;;;;;;;;5015057;28;20041;-78
2022/04/13 00:52:04;;;;;;;16.80;8.18;;;;;;;;;;5014673;28;20046;-76
2022/04/13 00:54:32;;;;;;;12.77;7.13;;;;;;;;;;5015785;28;20054;-78
2022/04/13 00:57:00;;;;;;;14.68;8.07;;;;;;;;;;5015043;28;20077;-78
2022/04/13 00:59:27;;;;;;;16.17;8.23;;;;;;;;;;5014975;28;20116;-78
2022/04/13 01:01:57;;;;;;;11.48;6.95;;;;;;;;;;5014546;28;20192;-78
2022/04/13 01:04:27;;;;;;;15.07;8.00;;;;;;;;;;5015696;28;20049;-78
2022/04/13 01:06:55;;;;;;;17.45;9.10;;;;;;;;;;5014778;28;20419;-77
2022/04/13 01:09:25;;;;;;;15.05;7.47;;;;;;;;;;5014756;28;20042;-78
2022/04/13 01:11:52;;;;;;;12.63;7.25;;;;;;;;;;5016385;28;20050;-77
2022/04/13 01:14:18;;;;;;;22.08;8.30;;;;;;;;;;5028713;28;20060;-78
2022/04/13 01:16:45;;;;;;;17.92;7.40;;;;;;;;;;5035598;28;20050;-79
2022/04/13 01:19:13;;;;;;;14.63;7.78;;;;;;;;;;5023307;28;20081;-79
2022/04/13 01:21:44;;;;;;;12.73;7.60;;;;;;;;;;5015653;28;20124;-78
2022/04/13 01:24:13;;;;;;;17.55;8.85;;;;;;;;;;5015591;28;20048;-77
2022/04/13 01:26:40;;;;;;;15.73;8.02;;;;;;;;;;5014925;28;20096;-78
2022/04/13 01:29:07;;;;;;;15.65;8.10;;;;;;;;;;5014637;28;20045;-78
2022/04/13 01:31:34;;;;;;;13.65;7.82;;;;;;;;;;5030981;22;20092;-78
2022/04/13 01:34:01;;;;;;;14.30;8.20;;;;;;;;;;4998784;28;20078;-78
2022/04/13 01:39:51;;;;;;;14.30;8.45;;;;;;;;;;5010681;28;20072;-78
2022/04/13 01:42:18;;;;;;;14.45;8.35;;;;;;;;;;5018195;28;20081;-78
2022/04/13 01:44:45;;;;;;;14.48;7.10;;;;;;;;;;5019805;28;20100;-78
2022/04/13 01:47:12;;;;;;;16.65;8.80;;;;;;;;;;5003242;28;20046;-78
2022/04/13 01:49:39;;;;;;;17.02;7.80;;;;;;;;;;5002225;28;20074;-78
2022/04/13 01:52:07;;;;;;;13.68;8.13;;;;;;;;;;5002976;28;20097;-78
2022/04/13 01:54:34;;;;;;;16.95;8.45;;;;;;;;;;5001605;28;20493;-79
2022/04/13 01:57:03;;;;;;;14.23;7.78;;;;;;;;;;5001466;28;20050;-79
2022/04/13 01:59:30;;;;;;;15.93;7.97;;;;;;;;;;5002953;28;20058;-79
2022/04/13 02:01:56;;;;;;;13.30;7.78;;;;;;;;;;5012808;28;20046;-79
2022/04/13 02:04:25;;;;;;;15.00;7.93;;;;;;;;;;5001482;28;20133;-79
2022/04/13 02:06:53;;;;;;;21.63;9.15;;;;;;;;;;5001822;28;20073;-79
2022/04/13 02:09:20;;;;;;;18.10;8.15;;;;;;;;;;4998760;28;20050;-78
2022/04/13 02:11:47;;;;;;;15.57;8.95;;;;;;;;;;5001589;28;20050;-78
2022/04/13 02:14:18;;;;;;;18.13;8.82;;;;;;;;;;4998283;28;20042;-80
2022/04/13 02:16:45;;;;;;;16.98;8.55;;;;;;;;;;4996947;28;20050;-78
2022/04/13 02:19:12;;;;;;;13.30;8.18;;;;;;;;;;4995233;28;20069;-78
2022/04/13 02:21:39;;;;;;;16.98;8.30;;;;;;;;;;4996951;28;20080;-79
2022/04/13 02:24:07;;;;;;;16.40;9.82;;;;;;;;;;4997317;28;20046;-78
2022/04/13 02:26:33;;;;;;;16.02;8.23;;;;;;;;;;4996003;28;20129;-78
2022/04/13 02:29:02;;;;;;;14.40;9.43;;;;;;;;;;4996602;28;20046;-78
2022/04/13 02:31:30;;;;;;;15.32;8.65;;;;;;;;;;4996459;28;20054;-77
2022/04/13 02:33:57;;;;;;;17.50;8.40;;;;;;;;;;4996832;28;20100;-79
2022/04/13 02:36:24;;;;;;;15.50;8.48;;;;;;;;;;4996369;28;20050;-78
2022/04/13 02:38:53;;;;;;;15.65;8.77;;;;;;;;;;4996281;28;20101;-79
2022/04/13 02:41:20;;;;;;;16.85;8.20;;;;;;;;;;4996596;28;20061;-78
2022/04/13 02:43:46;;;;;;;17.60;8.93;;;;;;;;;;5005523;28;20050;-77
2022/04/13 02:46:13;;;;;;;15.25;9.30;;;;;;;;;;5011538;28;20046;-76
2022/04/13 02:48:41;;;;;;;14.48;7.90;;;;;;;;;;5012215;28;20054;-77
2022/04/13 02:51:08;;;;;;;15.05;8.95;;;;;;;;;;5011026;28;20112;-77
2022/04/13 02:53:35;;;;;;;17.50;9.75;;;;;;;;;;5000069;28;20057;-78
2022/04/13 02:56:01;;;;;;;17.45;9.20;;;;;;;;;;4995568;28;20066;-78
2022/04/13 02:58:28;;;;;;;16.67;9.52;;;;;;;;;;4995943;28;20046;-77
2022/04/13 03:00:55;;;;;;;18.35;9.77;;;;;;;;;;4995629;28;20112;-78
2022/04/13 03:03:22;;;;;;;19.65;9.50;;;;;;;;;;4994611;28;20461;-77
2022/04/13 03:05:50;;;;;;;17.42;9.07;;;;;;;;;;4993420;28;20054;-77
2022/04/13 03:08:17;;;;;;;18.88;9.25;;;;;;;;;;4993849;28;20053;-77
2022/04/13 03:10:44;;;;;;;17.30;8.70;;;;;;;;;;4993452;28;20113;-78
2022/04/13 03:13:11;;;;;;;16.60;9.60;;;;;;;;;;4993281;28;20066;-77
2022/04/13 03:15:38;;;;;;;19.83;10.55;;;;;;;;;;4993287;28;20054;-78
2022/04/13 03:18:06;;;;;;;16.50;8.93;;;;;;;;;;4993270;28;20082;-77
2022/04/13 03:20:33;;;;;;;16.73;8.48;;;;;;;;;;4993312;28;20049;-78
2022/04/13 03:23:02;;;;;;;16.35;9.02;;;;;;;;;;4993730;28;20490;-77
2022/04/13 03:25:29;;;;;;;15.27;8.95;;;;;;;;;;4992943;28;20570;-77
2022/04/13 03:27:56;;;;;;;19.25;9.93;;;;;;;;;;4993330;28;20054;-77
2022/04/13 03:30:23;;;;;;;15.07;8.75;;;;;;;;;;4993859;28;20050;-77
2022/04/13 03:32:51;;;;;;;17.40;9.77;;;;;;;;;;4996981;28;20497;-78
2022/04/13 03:35:18;;;;;;;19.90;9.52;;;;;;;;;;4998683;28;20483;-77
2022/04/13 03:37:44;;;;;;;18.73;9.75;;;;;;;;;;4999511;28;20093;-77
2022/04/13 03:40:13;;;;;;;16.33;9.43;;;;;;;;;;4999632;28;20054;-77
2022/04/13 03:42:41;;;;;;;17.17;9.07;;;;;;;;;;4999331;28;20046;-78
2022/04/13 03:45:11;;;;;;;18.13;9.23;;;;;;;;;;4999134;28;20528;-78
2022/04/13 03:47:39;;;;;;;20.98;10.43;;;;;;;;;;4998959;28;20077;-77
2022/04/13 03:50:06;;;;;;;15.77;9.32;;;;;;;;;;4999146;28;20053;-77
2022/04/13 03:52:34;;;;;;;17.30;8.57;;;;;;;;;;4999211;28;20046;-78
2022/04/13 03:55:01;;;;;;;18.00;9.18;;;;;;;;;;4999090;28;20111;-78
2022/04/13 03:57:29;;;;;;;18.17;9.27;;;;;;;;;;4999085;28;20065;-78
2022/04/13 03:59:56;;;;;;;16.17;9.05;;;;;;;;;;4998901;28;20516;-77
2022/04/13 04:02:23;;;;;;;17.15;9.63;;;;;;;;;;4999438;28;20714;-78
2022/04/13 04:04:50;;;;;;;16.02;9.30;;;;;;;;;;5000427;28;20497;-78
2022/04/13 04:07:17;;;;;;;14.77;9.15;;;;;;;;;;5000267;28;20050;-78
2022/04/13 04:09:45;;;;;;;18.23;10.10;;;;;;;;;;5000657;28;20133;-78
2022/04/13 04:12:12;;;;;;;17.77;10.13;;;;;;;;;;5001558;28;20043;-77
2022/04/13 04:14:40;;;;;;;16.90;9.48;;;;;;;;;;5001237;28;20089;-78
2022/04/13 04:17:07;;;;;;;18.10;10.65;;;;;;;;;;5001387;28;20046;-78
2022/04/13 04:19:34;;;;;;;17.27;9.25;;;;;;;;;;5000739;28;20541;-78
2022/04/13 04:22:01;;;;;;;21.20;10.00;;;;;;;;;;4999313;28;20065;-78
2022/04/13 04:24:28;;;;;;;15.30;9.73;;;;;;;;;;4999116;28;20054;-78
2022/04/13 04:27:00;;;;;;;17.33;9.75;;;;;;;;;;4999800;28;20468;-78
2022/04/13 04:29:27;;;;;;;18.75;9.52;;;;;;;;;;5010792;28;20050;-78
2022/04/13 04:31:56;;;;;;;19.92;10.88;;;;;;;;;;5011863;28;20120;-76
2022/04/13 04:34:24;;;;;;;22.92;10.45;;;;;;;;;;5006081;28;20047;-78
2022/04/13 04:36:51;;;;;;;19.70;10.13;;;;;;;;;;4998656;28;20046;-77
2022/04/13 04:39:19;;;;;;;18.63;10.68;;;;;;;;;;4998513;28;20050;-78
2022/04/13 04:41:47;;;;;;;17.05;9.98;;;;;;;;;;4998293;28;20109;-77
2022/04/13 04:44:13;;;;;;;20.02;11.30;;;;;;;;;;4998995;28;20055;-77
2022/04/13 04:46:40;;;;;;;18.42;10.40;;;;;;;;;;4998782;28;20054;-78
2022/04/13 04:49:08;;;;;;;24.40;9.88;;;;;;;;;;4999154;28;20117;-78
2022/04/13 04:51:35;;;;;;;20.65;9.98;;;;;;;;;;4998595;28;20104;-78
2022/04/13 04:54:03;;;;;;;20.35;9.80;;;;;;;;;;4998555;28;20112;-78
2022/04/13 04:56:30;;;;;;;17.30;9.50;;;;;;;;;;4997893;28;20124;-78
2022/04/13 04:58:58;;;;;;;22.45;10.75;;;;;;;;;;4998108;28;20473;-78
2022/04/13 05:01:24;;;;;;;15.88;8.80;;;;;;;;;;4998273;28;20062;-78
2022/04/13 05:03:51;;;;;;;15.10;9.13;;;;;;;;;;4998952;28;20414;-79
2022/04/13 05:06:25;;;;;;;17.50;9.45;;;;;;;;;;4999442;28;20101;-78
2022/04/13 05:08:52;;;;;;;18.40;9.95;;;;;;;;;;4998908;28;20054;-78
2022/04/13 05:11:20;;;;;;;16.67;9.35;;;;;;;;;;4999825;28;20129;-79
2022/04/13 05:13:47;;;;;;;17.45;11.07;;;;;;;;;;4999595;28;20081;-77
2022/04/13 05:16:14;;;;;;;19.38;10.70;;;;;;;;;;5000879;28;20054;-78
2022/04/13 05:18:43;;;;;;;21.38;11.63;;;;;;;;;;4998366;28;20046;-77
2022/04/13 05:21:10;;;;;;;19.95;10.63;;;;;;;;;;4995591;28;20109;-79
2022/04/13 05:23:41;;;;;;;17.05;10.02;;;;;;;;;;4995546;28;20097;-77
2022/04/13 05:26:08;;;;;;;23.08;10.93;;;;;;;;;;4995974;28;20050;-77
2022/04/13 05:28:35;;;;;;;25.25;11.35;;;;;;;;;;4996137;28;20105;-77
2022/04/13 05:31:01;;;;;;;16.27;10.63;;;;;;;;;;4995047;28;20046;-77
2022/04/13 05:33:28;;;;;;;26.52;11.48;;;;;;;;;;4996916;28;20050;-77
2022/04/13 05:35:55;;;;;;;25.08;13.18;;;;;;;;;;4998091;28;20421;-77
2022/04/13 05:38:22;;;;;;;30.35;12.40;;;;;;;;;;4998353;28;20058;-78
2022/04/13 05:40:50;;;;;;;26.15;12.80;;;;;;;;;;4997967;28;20053;-78
2022/04/13 05:43:17;;;;;;;23.42;11.82;;;;;;;;;;4998198;28;20046;-78
2022/04/13 05:45:44;;;;;;;20.00;11.60;;;;;;;;;;4997413;28;20050;-78
2022/04/13 05:48:10;;;;;;;22.38;12.40;;;;;;;;;;4998109;28;20058;-77
2022/04/13 05:50:37;;;;;;;22.90;12.32;;;;;;;;;;4998767;28;20051;-78
2022/04/13 05:53:04;;;;;;;23.70;12.57;;;;;;;;;;4998163;28;20046;-78
2022/04/13 05:55:31;;;;;;;23.92;11.70;;;;;;;;;;4998388;28;20150;-78
2022/04/13 05:58:00;;;;;;;21.48;10.95;;;;;;;;;;4998099;28;20058;-78
2022/04/13 06:00:27;;;;;;;23.58;11.63;;;;;;;;;;4996900;28;20050;-78
2022/04/13 06:02:54;;;;;;;20.15;10.70;;;;;;;;;;4997992;28;20051;-77
2022/04/13 06:05:22;;;;;;;20.58;10.95;;;;;;;;;;4997603;28;20121;-78
2022/04/13 06:07:49;;;;;;;20.77;10.60;;;;;;;;;;4999438;28;20042;-78
2022/04/13 06:10:19;;;;;;;21.38;11.23;;;;;;;;;;5008753;28;20053;-78
2022/04/13 06:12:47;;;;;;;18.80;11.00;;;;;;;;;;5008980;28;20050;-78
2022/04/13 06:15:15;;;;;;;22.42;10.95;;;;;;;;;;5007549;28;20054;-79
2022/04/13 06:17:42;;;;;;;20.40;11.57;;;;;;;;;;5003265;28;20053;-78
2022/04/13 06:20:10;;;;;;;26.05;13.23;;;;;;;;;;5003775;28;20074;-78
2022/04/13 06:22:42;;;;;;;21.40;11.63;;;;;;;;;;5003742;28;20046;-78
2022/04/13 06:25:10;;;;;;;28.90;13.65;;;;;;;;;;5007081;28;20046;-78
2022/04/13 06:27:37;;;;;;;28.92;13.00;;;;;;;;;;5008711;28;20058;-79
2022/04/13 06:30:06;;;;;;;23.73;12.63;;;;;;;;;;5012331;28;20595;-77
2022/04/13 06:32:36;;;;;;;23.98;14.55;;;;;;;;;;5014184;28;20050;-79
2022/04/13 06:35:04;;;;;;;20.80;11.57;;;;;;;;;;5010746;28;20077;-78
2022/04/13 06:37:31;;;;;;;29.25;13.57;;;;;;;;;;5014502;28;20077;-78
2022/04/13 06:39:58;;;;;;;22.33;12.85;;;;;;;;;;5014654;28;20038;-78
2022/04/13 06:42:25;;;;;;;26.23;13.90;;;;;;;;;;5017130;28;20082;-77
2022/04/13 06:44:54;;;;;;;24.05;13.50;;;;;;;;;;5016165;28;20281;-78
2022/04/13 06:47:21;;;;;;;26.67;15.13;;;;;;;;;;5004118;28;20108;-78
2022/04/13 06:49:51;;;;;;;23.58;13.43;;;;;;;;;;5001139;28;20046;-77
2022/04/13 06:52:18;;;;;;;22.60;13.27;;;;;;;;;;5000703;28;20057;-76
2022/04/13 06:55:01;;;;;;;23.48;14.07;;;;;;;;;;4999310;28;20046;-77
2022/04/13 06:57:28;;;;;;;27.08;14.32;;;;;;;;;;4992688;28;20057;-77
2022/04/13 06:59:55;;;;;;;27.48;15.30;;;;;;;;;;5002236;28;20057;-78
2022/04/13 07:02:28;;;;;;;25.48;15.63;;;;;;;;;;5000382;28;20074;-77
2022/04/13 07:04:56;;;;;;;29.67;16.65;;;;;;;;;;5001166;28;20046;-77
2022/04/13 07:07:23;;;;;;;26.42;15.43;;;;;;;;;;5004456;28;20046;-76
2022/04/13 07:09:50;;;;;;;25.00;16.13;;;;;;;;;;5005868;28;20050;-78
2022/04/13 07:12:18;;;;;;;25.95;16.55;;;;;;;;;;4989019;28;20039;-78
2022/04/13 07:14:45;;;;;;;29.35;16.25;;;;;;;;;;4991779;28;20047;-79
2022/04/13 07:17:12;;;;;;;28.35;17.83;;;;;;;;;;4992679;28;20054;-78
2022/04/13 07:19:46;;;;;;;26.67;15.50;;;;;;;;;;4994152;28;20494;-83
2022/04/13 07:22:14;;;;;;;26.05;14.45;;;;;;;;;;4992705;28;20133;-78
2022/04/13 07:24:41;;;;;;;24.65;14.90;;;;;;;;;;4991709;28;20560;-76
2022/04/13 07:27:11;;;;;;;79.68;47.67;;;;;;;;;;4994488;28;20042;-79
2022/04/13 07:29:38;;;;;;;109.63;74.28;;;;;;;;;;4992836;28;20046;-80
2022/04/13 07:34:47;;;;;;;40.67;20.08;;;;;;;;;;5029212;28;20049;-80
2022/04/13 07:37:15;;;;;;;25.98;15.15;;;;;;;;;;5021002;28;20053;-79
2022/04/13 07:39:42;;;;;;;25.35;13.48;;;;;;;;;;5026072;28;20056;-80
2022/04/13 07:42:11;;;;;;;25.20;14.02;;;;;;;;;;5027805;28;20053;-80
2022/04/13 07:44:38;;;;;;;25.35;14.23;;;;;;;;;;5004298;28;20046;-79
2022/04/13 07:47:05;;;;;;;26.38;14.52;;;;;;;;;;5020597;28;20046;-80
2022/04/13 07:49:35;;;;;;;22.50;14.65;;;;;;;;;;5015726;28;20057;-79
2022/04/13 07:52:02;;;;;;;23.67;13.67;;;;;;;;;;5001933;28;20194;-77
2022/04/13 07:54:30;;;;;;;21.50;12.57;;;;;;;;;;4997283;28;20051;-78
2022/04/13 07:56:57;;;;;;;23.02;12.93;;;;;;;;;;4996973;28;20054;-78
2022/04/13 07:59:24;;;;;;;21.00;13.23;;;;;;;;;;4996842;28;20046;-78
2022/04/13 08:01:51;;;;;;;25.25;13.20;;;;;;;;;;4999045;28;20050;-78
2022/04/13 08:04:18;;;;;;;19.88;11.70;;;;;;;;;;5003636;28;20043;-78
2022/04/13 08:06:45;;;;;;;23.38;12.77;;;;;;;;;;4995857;28;20047;-77
2022/04/13 08:09:13;;;;;;;22.23;12.98;;;;;;;;;;4994301;28;20046;-79
2022/04/13 08:11:41;;;;;;;23.63;13.75;;;;;;;;;;4997499;28;20050;-79
2022/04/13 08:14:08;;;;;;;19.05;13.43;;;;;;;;;;4995623;28;20043;-79
2022/04/13 08:16:35;;;;;;;27.00;12.82;;;;;;;;;;4996015;28;20061;-78
2022/04/13 08:19:02;;;;;;;32.47;14.60;;;;;;;;;;5001992;28;20050;-79
2022/04/13 08:21:40;;;;;;;24.98;12.00;;;;;;;;;;5004032;28;20046;-78
2022/04/13 08:24:08;;;;;;;20.20;11.40;;;;;;;;;;5006808;28;20077;-78
2022/04/13 08:26:36;;;;;;;19.33;12.30;;;;;;;;;;5006054;28;20043;-80
2022/04/13 08:29:04;;;;;;;19.60;10.60;;;;;;;;;;5002257;28;20042;-80
2022/04/13 08:31:31;;;;;;;15.73;10.38;;;;;;;;;;4997840;28;20054;-79
2022/04/13 08:33:58;;;;;;;16.48;10.20;;;;;;;;;;4997234;28;20050;-79
2022/04/13 08:36:25;;;;;;;19.77;11.20;;;;;;;;;;4996926;28;20092;-80
2022/04/13 08:38:51;;;;;;;14.40;9.57;;;;;;;;;;4995996;28;20575;-78
2022/04/13 08:41:32;;;;;;;17.00;9.95;;;;;;;;;;4996211;28;20157;-79
2022/04/13 08:44:02;;;;;;;;;;;;;;;;;;4997094;28;20057;-80
2022/04/13 08:46:34;;;;;;;17.83;10.20;;;;;;;;;;4997578;28;19922;-79
2022/04/13 08:49:05;;;;;;;17.00;8.70;;;;;;;;;;5006961;28;20038;-79
2022/04/13 08:51:36;;;;;;;15.13;9.40;;;;;;;;;;5019396;28;20038;-78
2022/04/13 08:54:12;;;;;;;16.63;8.77;;;;;;;;;;5016283;28;20137;-78
2022/04/13 08:56:41;;;;;;;16.48;10.02;;;;;;;;;;5001855;28;20753;-79
2022/04/13 08:59:19;;;;;;;18.52;11.60;;;;;;;;;;5000866;28;20104;-79
2022/04/13 09:01:59;;;;;;;20.77;11.80;;;;;;;;;;4998840;28;20081;-78
2022/04/13 09:04:29;;;;;;;18.15;10.10;;;;;;;;;;4997673;28;20157;-79
2022/04/13 09:06:59;;;;;;;20.50;11.13;;;;;;;;;;4998217;28;20194;-79
2022/04/13 09:09:31;;;;;;;17.70;10.30;;;;;;;;;;5008968;28;20482;-78
2022/04/13 09:11:59;;;;;;;17.02;10.40;;;;;;;;;;5004865;28;20050;-78
2022/04/13 09:14:28;;;;;;;27.58;11.38;;;;;;;;;;5004912;28;20054;-78
2022/04/13 09:16:57;;;;;;;18.23;10.27;;;;;;;;;;5001516;28;20050;-79
2022/04/13 09:19:25;;;;;;;15.85;10.38;;;;;;;;;;4995968;28;20109;-79
2022/04/13 09:21:52;;;;;;;16.10;9.55;;;;;;;;;;4996950;28;20444;-79
2022/04/13 09:24:20;;;;;;;21.67;10.55;;;;;;;;;;4997084;28;20050;-78
2022/04/13 09:26:47;;;;;;;16.85;9.85;;;;;;;;;;4996743;28;20105;-80
2022/04/13 09:29:15;;;;;;;19.60;11.35;;;;;;;;;;4997873;28;20050;-79
2022/04/13 09:31:42;;;;;;;17.63;10.15;;;;;;;;;;5000161;28;20104;-80
2022/04/13 09:34:10;;;;;;;18.30;10.38;;;;;;;;;;5011381;28;20046;-78
2022/04/13 09:36:47;;;;;;;16.08;10.00;;;;;;;;;;5009442;28;20077;-79
2022/04/13 09:39:16;;;;;;;15.63;9.60;;;;;;;;;;5009585;28;20055;-79
2022/04/13 09:41:43;;;;;;;16.88;9.95;;;;;;;;;;4997748;28;20050;-79
2022/04/13 09:44:14;;;;;;;14.80;9.77;;;;;;;;;;4997386;28;20058;-80
2022/04/13 09:46:42;;;;;;;15.73;9.65;;;;;;;;;;5013592;28;20085;-79
2022/04/13 09:49:12;;;;;;;14.23;8.50;;;;;;;;;;5015897;28;20096;-80
2022/04/13 09:51:40;;;;;;;16.92;10.55;;;;;;;;;;5015777;28;20077;-79
2022/04/13 09:54:09;;;;;;;14.65;9.25;;;;;;;;;;5014656;28;20050;-80
2022/04/13 09:56:38;;;;;;;14.95;8.75;;;;;;;;;;5016616;28;20053;-80
2022/04/13 09:59:06;;;;;;;14.18;10.02;;;;;;;;;;5015775;28;20140;-79
2022/04/13 10:01:34;;;;;;;16.67;9.57;;;;;;;;;;5016955;28;20085;-81
2022/04/13 10:04:03;;;;;;;18.13;9.30;;;;;;;;;;5016076;28;20188;-79
2022/04/13 10:06:35;;;;;;;15.10;9.70;;;;;;;;;;5016066;28;20077;-80
2022/04/13 10:09:06;;;;;;;15.82;10.13;;;;;;;;;;5015466;28;20046;-79
2022/04/13 10:11:33;;;;;;;18.23;9.77;;;;;;;;;;5016770;28;20052;-81
2022/04/13 10:14:02;;;;;;;14.38;10.52;;;;;;;;;;5015782;28;20413;-80
2022/04/13 10:16:33;;;;;;;17.20;11.80;;;;;;;;;;5015324;28;20133;-80
2022/04/13 10:19:01;;;;;;;21.15;13.30;;;;;;;;;;5015541;28;20070;-80
2022/04/13 10:21:40;;;;;;;22.38;11.73;;;;;;;;;;5015847;28;20054;-79
2022/04/13 10:24:09;;;;;;;19.13;11.18;;;;;;;;;;5016325;28;20046;-80
2022/04/13 10:26:36;;;;;;;20.23;13.63;;;;;;;;;;5014359;28;20401;-81
2022/04/13 10:29:03;;;;;;;15.75;11.05;;;;;;;;;;5015301;28;20054;-80
2022/04/13 10:31:30;;;;;;;19.55;12.65;;;;;;;;;;5014842;28;20710;-80
2022/04/13 10:33:57;;;;;;;19.02;12.57;;;;;;;;;;5016075;28;20052;-79
2022/04/13 10:36:23;;;;;;;18.48;12.50;;;;;;;;;;5015380;28;20489;-78
2022/04/13 10:38:54;;;;;;;19.67;13.15;;;;;;;;;;5015085;28;20112;-79
2022/04/13 10:41:21;;;;;;;17.77;12.80;;;;;;;;;;5014213;28;20054;-80
2022/04/13 10:43:58;;;;;;;16.92;11.18;;;;;;;;;;5014944;28;20108;-80
2022/04/13 10:46:26;;;;;;;32.42;16.52;;;;;;;;;;5015239;28;20058;-79
2022/04/13 10:48:55;;;;;;;23.10;15.00;;;;;;;;;;5015303;28;20050;-78
2022/04/13 10:51:26;;;;;;;21.00;13.93;;;;;;;;;;5016465;28;20092;-79
2022/04/13 10:54:00;;;;;;;;;;;;;;;;;;5015511;28;20046;-79
2022/04/13 10:56:28;;;;;;;21.58;12.38;;;;;;;;;;5015063;28;20351;-80
2022/04/13 10:59:02;;;;;;;20.58;14.23;;;;;;;;;;5014535;28;20046;-80
2022/04/13 11:01:36;;;;;;;21.90;15.45;;;;;;;;;;5014650;28;20046;-79
2022/04/13 11:04:05;;;;;;;23.88;16.17;;;;;;;;;;5014720;28;20050;-80
2022/04/13 11:06:33;;;;;;;22.73;16.57;;;;;;;;;;5014805;28;20049;-80
2022/04/13 11:09:06;;;;;;;24.63;15.25;;;;;;;;;;5014487;28;20050;-79
2022/04/13 11:11:35;;;;;;;21.60;14.95;;;;;;;;;;5015231;28;20046;-79
2022/04/13 11:14:16;;;;;;;25.15;16.48;;;;;;;;;;5010242;28;20089;-78
2022/04/13 11:16:43;;;;;;;25.25;16.55;;;;;;;;;;4996242;28;20050;-80
2022/04/13 11:19:22;;;;;;;24.55;16.92;;;;;;;;;;5005837;28;20050;-79
2022/04/13 11:22:12;;;;;;;28.60;19.30;;;;;;;;;;4995859;28;20053;-80
2022/04/13 11:24:42;;;;;;;24.38;16.25;;;;;;;;;;4996753;28;20477;-80
2022/04/13 11:27:10;;;;;;;26.08;17.67;;;;;;;;;;4995778;28;20098;-80
2022/04/13 11:29:38;;;;;;;28.92;19.65;;;;;;;;;;4996163;28;20052;-79
2022/04/13 11:32:13;;;;;;;28.00;17.42;;;;;;;;;;5007972;28;20041;-79
2022/04/13 11:34:45;;;;;;;25.30;17.52;;;;;;;;;;5008073;28;20053;-80
2022/04/13 11:37:21;;;;;;;26.92;16.48;;;;;;;;;;5015453;28;20042;-79
2022/04/13 11:40:25;;;;;;;28.50;16.92;;;;;;;;;;5014658;28;20045;-79
2022/04/13 11:42:56;;;;;;;22.45;15.05;;;;;;;;;;5016014;28;20052;-80
2022/04/13 11:45:24;;;;;;;23.52;15.85;;;;;;;;;;5016560;28;20045;-80
2022/04/13 11:47:58;;;;;;;25.38;16.52;;;;;;;;;;5016125;28;20127;-79
2022/04/13 11:50:28;;;;;;;26.75;17.38;;;;;;;;;;5017072;28;20050;-80
2022/04/13 11:52:55;;;;;;;23.52;16.80;;;;;;;;;;5019402;28;20655;-80
2022/04/13 11:55:25;;;;;;;25.50;15.73;;;;;;;;;;5021392;28;20456;-80
2022/04/13 11:58:25;;;;;;;23.60;16.08;;;;;;;;;;5022952;28;20046;-80
2022/04/13 12:00:59;;;;;;;;;;;;;;;;;;5021222;28;20058;-80
2022/04/13 12:03:35;;;;;;;29.67;17.70;;;;;;;;;;5011212;28;19925;-80
2022/04/13 12:06:11;;;;;;;28.38;17.35;;;;;;;;;;5007423;28;20046;-79
2022/04/13 12:08:40;;;;;;;25.52;15.77;;;;;;;;;;5009805;28;20046;-79
2022/04/13 12:11:16;;;;;;;25.55;17.48;;;;;;;;;;5005515;28;20058;-80
2022/04/13 12:13:56;;;;;;;26.67;17.63;;;;;;;;;;5007281;28;20058;-82
2022/04/13 12:16:24;;;;;;;;;;;;;;;;;;5010885;28;20050;-80
2022/04/13 12:18:52;;;;;;;26.55;16.55;;;;;;;;;;5013263;28;19948;-80
2022/04/13 12:21:26;;;;;;;27.85;17.65;;;;;;;;;;5022510;28;20572;-78
2022/04/13 12:23:56;;;;;;;28.05;17.23;;;;;;;;;;5021624;28;20046;-78
2022/04/13 12:26:41;;;;;;;29.63;18.48;;;;;;;;;;5027574;28;20039;-78
2022/04/13 12:29:20;;;;;;;29.38;19.90;;;;;;;;;;5016889;28;20081;-80
2022/04/13 12:31:51;;;;;;;29.13;20.97;;;;;;;;;;5007008;28;20052;-78
2022/04/13 12:34:18;;;;;;;27.65;19.05;;;;;;;;;;5013262;28;20049;-78
2022/04/13 12:39:37;;;;;;;30.38;17.73;;;;;;;;;;5006211;28;20059;-78
2022/04/13 12:42:08;;;;;;;31.23;18.00;;;;;;;;;;5008685;28;20053;-78
2022/04/13 12:44:45;;;;;;;29.10;17.58;;;;;;;;;;5006038;28;20100;-77
2022/04/13 12:47:12;;;;;;;30.48;19.63;;;;;;;;;;5009436;28;20065;-78
2022/04/13 12:49:39;;;;;;;33.70;17.85;;;;;;;;;;5004917;28;20145;-78
2022/04/13 12:52:08;;;;;;;31.25;17.08;;;;;;;;;;5008018;28;20046;-77
2022/04/13 12:54:36;;;;;;;29.33;18.05;;;;;;;;;;5011041;28;20045;-79
2022/04/13 12:57:07;;;;;;;32.20;20.27;;;;;;;;;;5010287;28;20054;-79
2022/04/13 12:59:36;;;;;;;26.85;16.48;;;;;;;;;;5000921;28;20507;-79
2022/04/13 13:02:03;;;;;;;24.17;14.63;;;;;;;;;;5020736;28;20046;-79
2022/04/13 13:04:41;;;;;;;24.20;14.73;;;;;;;;;;5005301;28;20504;-79
2022/04/13 13:07:08;;;;;;;24.88;15.85;;;;;;;;;;5003271;28;20050;-78
2022/04/13 13:09:37;;;;;;;28.92;14.32;;;;;;;;;;5017104;28;20057;-79
2022/04/13 13:12:10;;;;;;;26.95;16.00;;;;;;;;;;5003523;28;20058;-80
2022/04/13 13:14:40;;;;;;;27.98;15.88;;;;;;;;;;5006193;28;20045;-78
2022/04/13 13:17:21;;;;;;;26.50;16.13;;;;;;;;;;5020964;28;20057;-78
2022/04/13 13:19:50;;;;;;;32.00;17.45;;;;;;;;;;5018698;28;20046;-83
2022/04/13 13:22:19;;;;;;;27.23;15.30;;;;;;;;;;5014852;28;20051;-81
2022/04/13 13:24:53;;;;;;;29.08;17.88;;;;;;;;;;5005870;28;20050;-79
2022/04/13 13:27:30;;;;;;;30.40;17.48;;;;;;;;;;5008098;28;20046;-80
2022/04/13 13:29:59;;;;;;;25.52;15.95;;;;;;;;;;5011372;28;20125;-80
2022/04/13 13:32:29;;;;;;;23.67;13.88;;;;;;;;;;5003466;28;20112;-80
2022/04/13 13:34:57;;;;;;;30.35;19.38;;;;;;;;;;5011530;28;20081;-80
2022/04/13 13:37:39;;;;;;;26.05;15.05;;;;;;;;;;5014257;28;20501;-79
2022/04/13 13:40:27;;;;;;;23.90;17.15;;;;;;;;;;5013706;28;20080;-79
2022/04/13 13:42:55;;;;;;;25.30;15.38;;;;;;;;;;5007941;28;20046;-80
2022/04/13 13:45:22;;;;;;;27.80;16.17;;;;;;;;;;5010651;28;20669;-79
2022/04/13 13:47:50;;;;;;;21.48;14.13;;;;;;;;;;5016864;28;20052;-80
2022/04/13 13:50:16;;;;;;;28.98;16.85;;;;;;;;;;5017084;28;20048;-81
2022/04/13 13:52:43;;;;;;;19.23;14.48;;;;;;;;;;5017504;28;20611;-81
2022/04/13 13:55:12;;;;;;;22.40;15.57;;;;;;;;;;5017374;28;20050;-79
2022/04/13 13:57:39;;;;;;;22.38;14.35;;;;;;;;;;5017413;28;20593;-80
2022/04/13 14:00:10;;;;;;;23.65;15.55;;;;;;;;;;5016759;28;20124;-80
2022/04/13 14:02:37;;;;;;;18.92;12.90;;;;;;;;;;5017299;28;20046;-81
2022/04/13 14:05:26;;;;;;;21.45;14.40;;;;;;;;;;5019306;28;20042;-80
2022/04/13 14:07:54;;;;;;;24.80;17.17;;;;;;;;;;5015233;28;20073;-79
2022/04/13 14:10:24;;;;;;;22.48;15.43;;;;;;;;;;5014660;28;20101;-81
2022/04/13 14:12:52;;;;;;;29.10;18.33;;;;;;;;;;5014147;28;20386;-80
2022/04/13 14:15:21;;;;;;;23.98;15.68;;;;;;;;;;5013650;28;20046;-80
2022/04/13 14:17:49;;;;;;;21.73;15.75;;;;;;;;;;5014385;28;20046;-79
2022/04/13 14:20:17;;;;;;;22.85;16.42;;;;;;;;;;5014068;28;20112;-79
2022/04/13 14:22:45;;;;;;;22.80;16.05;;;;;;;;;;5013535;28;20464;-78
2022/04/13 14:25:13;;;;;;;23.23;14.60;;;;;;;;;;5014126;28;20100;-79
2022/04/13 14:27:40;;;;;;;24.00;16.13;;;;;;;;;;5014867;28;20049;-78
2022/04/13 14:30:10;;;;;;;21.20;13.60;;;;;;;;;;5014817;28;20077;-79
2022/04/13 14:32:40;;;;;;;24.98;15.43;;;;;;;;;;5015080;28;20104;-78
2022/04/13 14:35:08;;;;;;;19.42;13.27;;;;;;;;;;5014255;28;20062;-78
2022/04/13 14:37:36;;;;;;;21.60;13.38;;;;;;;;;;5014570;28;20053;-78
2022/04/13 14:40:04;;;;;;;20.08;14.02;;;;;;;;;;5011522;28;20447;-78
2022/04/13 14:42:31;;;;;;;16.88;12.95;;;;;;;;;;5011682;28;20090;-79